createdAt,value
2023-04-11T00:01:57.439Z,43.60
2023-04-11T00:04:25.666Z,43.60
2023-04-11T00:06:53.813Z,43.60
2023-04-11T00:09:21.636Z,43.50
2023-04-11T00:11:49.455Z,43.60
2023-04-11T00:14:17.654Z,43.50
2023-04-11T00:16:45.462Z,43.50
2023-04-11T00:19:13.372Z,43.60
2023-04-11T00:21:41.192Z,43.60
2023-04-11T00:24:09.330Z,43.50
2023-04-11T00:26:37.241Z,43.60
2023-04-11T00:29:05.079Z,43.60
2023-04-11T00:31:33.097Z,43.60
2023-04-11T00:34:00.966Z,43.60
2023-04-11T00:36:28.939Z,43.60
2023-04-11T00:38:58.651Z,43.60
2023-04-11T00:41:26.616Z,43.60
2023-04-11T00:43:54.852Z,43.70
2023-04-11T00:46:22.761Z,43.60
2023-04-11T00:48:50.854Z,43.60
2023-04-11T00:51:18.632Z,43.70
2023-04-11T00:53:46.716Z,43.70
2023-04-11T00:56:14.694Z,43.60
2023-04-11T00:58:42.520Z,43.70
2023-04-11T01:01:10.486Z,43.60
2023-04-11T01:03:38.637Z,43.70
2023-04-11T01:06:06.961Z,43.70
2023-04-11T01:08:34.861Z,43.70
2023-04-11T01:11:02.697Z,43.70
2023-04-11T01:13:30.652Z,43.60
2023-04-11T01:15:58.692Z,43.60
2023-04-11T01:18:26.828Z,43.70
2023-04-11T01:20:54.964Z,43.70
2023-04-11T01:23:22.837Z,43.70
2023-04-11T01:25:50.654Z,43.80
2023-04-11T01:28:18.440Z,43.80
2023-04-11T01:30:46.237Z,43.70
2023-04-11T01:33:14.170Z,43.70
2023-04-11T01:35:41.966Z,43.80
2023-04-11T01:38:09.755Z,43.70
2023-04-11T01:40:37.656Z,43.70
2023-04-11T01:43:05.500Z,43.70
2023-04-11T01:45:33.557Z,44.40
2023-04-11T01:48:01.449Z,43.70
2023-04-11T01:50:29.371Z,43.80
2023-04-11T01:52:57.191Z,44.00
2023-04-11T01:55:25.045Z,43.80
2023-04-11T01:57:52.861Z,43.80
2023-04-11T02:00:20.646Z,43.80
2023-04-11T02:02:48.601Z,43.80
2023-04-11T02:05:16.652Z,43.90
2023-04-11T02:07:45.175Z,43.90
2023-04-11T02:10:13.022Z,43.90
2023-04-11T02:12:40.831Z,43.90
2023-04-11T02:15:08.816Z,43.90
2023-04-11T02:17:37.000Z,43.90
2023-04-11T02:20:06.987Z,44.00
2023-04-11T02:22:34.877Z,44.00
2023-04-11T02:25:02.706Z,44.00
2023-04-11T02:27:31.535Z,44.10
2023-04-11T02:30:00.375Z,44.10
2023-04-11T02:32:30.479Z,44.10
2023-04-11T02:34:58.435Z,44.20
2023-04-11T02:37:26.505Z,44.20
2023-04-11T02:39:54.333Z,44.20
2023-04-11T02:42:22.137Z,44.90
2023-04-11T02:44:49.918Z,44.20
2023-04-11T02:47:17.776Z,44.20
2023-04-11T02:49:45.768Z,44.30
2023-04-11T02:52:13.716Z,44.20
2023-04-11T02:54:41.630Z,44.30
2023-04-11T02:57:09.440Z,44.30
2023-04-11T02:59:37.218Z,44.40
2023-04-11T03:02:05.076Z,44.30
2023-04-11T03:04:32.940Z,44.30
2023-04-11T03:07:01.091Z,44.40
2023-04-11T03:09:28.905Z,44.40
2023-04-11T03:11:57.614Z,44.40
2023-04-11T03:14:25.471Z,44.40
2023-04-11T03:16:53.223Z,44.40
2023-04-11T03:19:21.170Z,44.40
2023-04-11T03:21:48.888Z,44.50
2023-04-11T03:24:17.912Z,44.50
2023-04-11T03:26:45.829Z,44.50
2023-04-11T03:29:13.587Z,44.50
2023-04-11T03:31:41.414Z,44.50
2023-04-11T03:34:09.252Z,44.50
2023-04-11T03:36:37.085Z,44.60
2023-04-11T03:39:04.907Z,44.60
2023-04-11T03:41:32.733Z,44.50
2023-04-11T03:44:00.547Z,44.70
2023-04-11T03:46:28.477Z,44.70
2023-04-11T03:48:56.440Z,44.70
2023-04-11T03:51:24.429Z,44.70
2023-04-11T03:53:52.730Z,44.70
2023-04-11T03:56:20.956Z,44.70
2023-04-11T03:58:48.788Z,44.70
2023-04-11T04:01:16.616Z,44.70
2023-04-11T04:03:44.568Z,44.80
2023-04-11T04:06:12.551Z,44.80
2023-04-11T04:08:40.303Z,44.70
2023-04-11T04:11:08.056Z,44.70
2023-04-11T04:13:36.253Z,44.70
2023-04-11T04:16:04.207Z,44.70
2023-04-11T04:18:32.352Z,44.70
2023-04-11T04:21:00.269Z,45.00
2023-04-11T04:23:28.125Z,45.20
2023-04-11T04:25:58.090Z,45.20
2023-04-11T04:28:26.594Z,45.20
2023-04-11T04:30:58.094Z,45.10
2023-04-11T04:33:27.538Z,45.20
2023-04-11T04:36:00.098Z,45.90
2023-04-11T04:38:29.054Z,46.20
2023-04-11T04:40:56.965Z,46.40
2023-04-11T04:43:24.732Z,46.60
2023-04-11T04:45:52.634Z,46.60
2023-04-11T04:48:20.412Z,46.60
2023-04-11T04:50:48.228Z,46.50
2023-04-11T04:53:16.058Z,46.40
2023-04-11T04:55:43.957Z,46.20
2023-04-11T04:58:11.795Z,46.20
2023-04-11T05:00:40.883Z,46.20
2023-04-11T05:03:11.090Z,46.00
2023-04-11T05:05:39.120Z,46.00
2023-04-11T05:08:08.080Z,46.00
2023-04-11T05:10:36.040Z,46.00
2023-04-11T05:13:03.881Z,45.90
2023-04-11T05:15:31.663Z,45.80
2023-04-11T05:17:59.467Z,45.90
2023-04-11T05:20:29.855Z,45.90
2023-04-11T05:22:57.704Z,45.80
2023-04-11T05:25:26.061Z,45.80
2023-04-11T05:27:53.816Z,45.80
2023-04-11T05:30:21.582Z,45.70
2023-04-11T05:32:49.376Z,45.70
2023-04-11T05:35:17.219Z,45.70
2023-04-11T05:37:45.091Z,45.60
2023-04-11T05:40:13.176Z,45.70
2023-04-11T05:42:41.256Z,45.70
2023-04-11T05:45:09.092Z,45.60
2023-04-11T05:47:36.878Z,45.60
2023-04-11T05:50:04.687Z,45.60
2023-04-11T05:52:32.483Z,45.60
2023-04-11T05:55:01.545Z,45.60
2023-04-11T05:57:29.403Z,45.60
2023-04-11T05:59:57.213Z,45.50
2023-04-11T06:02:25.056Z,45.60
2023-04-11T06:04:53.010Z,45.60
2023-04-11T06:07:21.636Z,45.60
2023-04-11T06:09:49.535Z,45.60
2023-04-11T06:12:17.315Z,45.80
2023-04-11T06:14:45.069Z,46.20
2023-04-11T06:17:12.794Z,46.20
2023-04-11T06:19:40.667Z,46.20
2023-04-11T06:22:08.464Z,46.10
2023-04-11T06:24:36.409Z,46.10
2023-04-11T06:27:04.772Z,46.00
2023-04-11T06:29:32.573Z,46.00
2023-04-11T06:32:00.500Z,45.90
2023-04-11T06:34:28.336Z,45.90
2023-04-11T06:36:56.150Z,45.80
2023-04-11T06:39:23.999Z,45.90
2023-04-11T06:41:51.789Z,45.80
2023-04-11T06:44:19.631Z,45.80
2023-04-11T06:46:47.437Z,45.70
2023-04-11T06:49:15.531Z,45.70
2023-04-11T06:51:43.342Z,45.70
2023-04-11T06:54:11.186Z,45.70
2023-04-11T06:56:38.962Z,45.70
2023-04-11T06:59:07.026Z,45.70
2023-04-11T07:01:37.941Z,45.60
2023-04-11T07:04:06.160Z,45.60
2023-04-11T07:06:35.475Z,45.60
2023-04-11T07:09:03.300Z,45.70
2023-04-11T07:11:31.205Z,45.60
2023-04-11T07:13:59.045Z,45.60
2023-04-11T07:16:27.090Z,45.60
2023-04-11T07:18:55.150Z,45.60
2023-04-11T07:21:22.903Z,45.60
2023-04-11T07:23:52.414Z,45.60
2023-04-11T07:26:20.188Z,45.50
2023-04-11T07:28:48.021Z,45.40
2023-04-11T07:31:17.628Z,45.40
2023-04-11T07:33:45.531Z,45.40
2023-04-11T07:36:13.378Z,45.40
2023-04-11T07:38:41.367Z,45.30
2023-04-11T07:41:09.200Z,45.80
2023-04-11T07:43:37.009Z,45.40
2023-04-11T07:46:04.855Z,45.30
2023-04-11T07:48:33.109Z,45.20
2023-04-11T07:51:00.956Z,45.30
2023-04-11T07:53:31.020Z,45.20
2023-04-11T07:55:58.835Z,45.10
2023-04-11T07:58:26.612Z,45.10
2023-04-11T08:00:54.632Z,45.10
2023-04-11T08:03:23.561Z,45.10
2023-04-11T08:05:52.341Z,45.00
2023-04-11T08:08:20.216Z,44.90
2023-04-11T08:10:49.125Z,45.00
2023-04-11T08:13:18.446Z,44.90
2023-04-11T08:15:46.762Z,44.90
2023-04-11T08:18:16.565Z,44.80
2023-04-11T08:20:44.464Z,44.80
2023-04-11T08:23:12.245Z,44.80
2023-04-11T08:25:40.382Z,44.80
2023-04-11T08:28:09.937Z,44.70
2023-04-11T08:30:37.818Z,44.70
2023-04-11T08:33:07.181Z,44.70
2023-04-11T08:35:35.045Z,44.60
2023-04-11T08:38:02.843Z,44.60
2023-04-11T08:40:31.032Z,44.50
2023-04-11T08:42:58.874Z,44.50
2023-04-11T08:45:26.615Z,44.50
2023-04-11T08:47:54.432Z,44.40
2023-04-11T08:50:22.358Z,44.40
2023-04-11T08:52:50.199Z,44.20
2023-04-11T08:55:18.170Z,44.20
2023-04-11T08:57:46.004Z,44.10
2023-04-11T09:00:15.302Z,44.20
2023-04-11T09:02:43.737Z,44.00
2023-04-11T09:05:11.689Z,44.00
2023-04-11T09:07:39.612Z,44.00
2023-04-11T09:10:07.467Z,44.00
2023-04-11T09:12:35.271Z,44.10
2023-04-11T09:15:03.101Z,44.00
2023-04-11T09:17:30.984Z,44.00
2023-04-11T09:19:59.042Z,44.00
2023-04-11T09:22:27.084Z,44.10
2023-04-11T09:24:54.880Z,44.10
2023-04-11T09:27:24.563Z,44.00
2023-04-11T09:29:52.334Z,44.00
2023-04-11T09:32:20.236Z,44.00
2023-04-11T09:34:49.421Z,44.30
2023-04-11T09:37:17.199Z,44.00
2023-04-11T09:39:45.086Z,43.90
2023-04-11T09:42:12.848Z,44.00
2023-04-11T09:44:40.678Z,44.00
2023-04-11T09:47:09.563Z,44.00
2023-04-11T09:49:37.411Z,44.00
2023-04-11T09:52:05.246Z,44.00
2023-04-11T09:54:33.038Z,43.90
2023-04-11T09:57:00.909Z,43.80
2023-04-11T09:59:29.130Z,43.80
2023-04-11T10:01:57.063Z,43.80
2023-04-11T10:04:24.945Z,43.80
2023-04-11T10:06:52.823Z,43.80
2023-04-11T10:09:21.354Z,43.90
2023-04-11T10:11:49.208Z,44.00
2023-04-11T10:14:17.007Z,44.00
2023-04-11T10:16:44.935Z,44.00
2023-04-11T10:19:12.874Z,44.10
2023-04-11T10:21:41.940Z,44.10
2023-04-11T10:24:09.977Z,44.10
2023-04-11T10:26:37.887Z,44.20
2023-04-11T10:29:05.693Z,44.20
2023-04-11T10:31:33.588Z,44.30
2023-04-11T10:34:01.461Z,44.30
2023-04-11T10:36:29.270Z,44.20
2023-04-11T10:38:57.249Z,44.20
2023-04-11T10:41:25.551Z,44.30
2023-04-11T10:43:53.447Z,44.20
2023-04-11T10:46:21.549Z,44.20
2023-04-11T10:48:49.386Z,44.20
2023-04-11T10:51:17.440Z,44.20
2023-04-11T10:53:47.296Z,44.30
2023-04-11T10:56:16.103Z,44.30
2023-04-11T10:58:43.983Z,44.30
2023-04-11T11:01:21.175Z,44.40
2023-04-11T11:03:59.597Z,44.30
2023-04-11T11:06:29.244Z,44.40
2023-04-11T11:08:57.914Z,44.50
2023-04-11T11:11:25.711Z,44.50
2023-04-11T11:13:53.943Z,44.60
2023-04-11T11:16:21.850Z,44.50
2023-04-11T11:18:49.721Z,44.50
2023-04-11T11:21:24.747Z,44.50
2023-04-11T11:23:55.755Z,44.40
2023-04-11T11:26:24.855Z,44.40
2023-04-11T11:28:52.684Z,44.30
2023-04-11T11:31:20.530Z,44.30
2023-04-11T11:33:48.374Z,44.30
2023-04-11T11:36:16.139Z,44.20
2023-04-11T11:38:43.977Z,44.20
2023-04-11T11:41:11.826Z,44.20
2023-04-11T11:43:39.642Z,44.10
2023-04-11T11:46:08.724Z,44.00
2023-04-11T11:48:36.883Z,44.00
2023-04-11T11:51:04.668Z,44.00
2023-04-11T11:53:32.560Z,44.00
2023-04-11T11:56:00.508Z,44.00
2023-04-11T11:58:28.318Z,44.00
2023-04-11T12:00:56.207Z,43.90
2023-04-11T12:03:24.242Z,43.90
2023-04-11T12:05:52.991Z,43.90
2023-04-11T12:08:20.791Z,43.90
2023-04-11T12:10:48.773Z,43.80
2023-04-11T12:13:16.852Z,43.80
2023-04-11T12:15:46.130Z,43.80
2023-04-11T12:18:14.041Z,43.80
2023-04-11T12:20:41.865Z,43.80
2023-04-11T12:23:09.742Z,43.80
2023-04-11T12:25:37.603Z,43.90
2023-04-11T12:28:06.100Z,43.80
2023-04-11T12:30:33.930Z,43.70
2023-04-11T12:33:01.761Z,43.80
2023-04-11T12:35:29.612Z,43.70
2023-04-11T12:37:57.405Z,43.60
2023-04-11T12:40:25.178Z,43.60
2023-04-11T12:42:57.201Z,43.50
2023-04-11T12:45:25.707Z,43.50
2023-04-11T12:47:53.683Z,43.50
2023-04-11T12:50:23.352Z,43.50
2023-04-11T12:52:51.392Z,43.50
2023-04-11T12:55:19.547Z,43.40
2023-04-11T12:57:47.432Z,43.50
2023-04-11T13:00:15.263Z,43.40
2023-04-11T13:02:45.307Z,43.40
2023-04-11T13:05:14.476Z,43.40
2023-04-11T13:07:42.831Z,43.50
2023-04-11T13:10:10.661Z,43.60
2023-04-11T13:12:41.631Z,43.60
2023-04-11T13:15:10.095Z,43.60
2023-04-11T13:17:37.877Z,43.60
2023-04-11T13:20:08.991Z,43.50
2023-04-11T13:22:36.810Z,43.50
2023-04-11T13:25:04.643Z,43.50
2023-04-11T13:27:32.694Z,43.50
2023-04-11T13:30:00.665Z,43.60
2023-04-11T13:32:28.507Z,43.60
2023-04-11T13:34:56.829Z,43.70
2023-04-11T13:37:24.813Z,43.90
2023-04-11T13:39:52.724Z,43.90
2023-04-11T13:42:21.846Z,44.00
2023-04-11T13:44:49.625Z,44.00
2023-04-11T13:47:17.429Z,44.00
2023-04-11T13:49:45.512Z,44.10
2023-04-11T13:52:13.388Z,43.90
2023-04-11T13:54:41.361Z,43.70
2023-04-11T13:57:09.752Z,43.40
2023-04-11T13:59:37.634Z,43.20
2023-04-11T14:02:05.501Z,42.80
2023-04-11T14:04:33.490Z,42.60
2023-04-11T14:07:01.460Z,42.20
2023-04-11T14:09:29.359Z,42.00
2023-04-11T14:11:57.974Z,41.60
2023-04-11T14:14:25.835Z,41.40
2023-04-11T14:16:53.893Z,41.30
2023-04-11T14:19:24.880Z,41.10
2023-04-11T14:21:52.785Z,41.00
2023-04-11T14:24:22.352Z,41.20
2023-04-11T14:26:50.575Z,41.20
2023-04-11T14:29:19.483Z,41.20
2023-04-11T14:31:48.968Z,41.20
2023-04-11T14:34:18.754Z,40.60
2023-04-11T14:36:46.560Z,40.80
2023-04-11T14:39:15.585Z,40.40
2023-04-11T14:41:43.565Z,39.90
2023-04-11T14:44:12.135Z,39.50
2023-04-11T14:46:39.970Z,39.40
2023-04-11T14:49:07.807Z,39.90
2023-04-11T14:51:35.806Z,39.70
2023-04-11T14:54:03.711Z,38.60
2023-04-11T14:56:31.731Z,39.50
2023-04-11T14:59:00.297Z,38.90
2023-04-11T15:01:28.187Z,39.10
2023-04-11T15:03:56.739Z,39.30
2023-04-11T15:06:24.755Z,39.60
2023-04-11T15:08:52.604Z,39.20
2023-04-11T15:11:20.444Z,39.60
2023-04-11T15:13:49.307Z,39.30
2023-04-11T15:16:18.785Z,39.50
2023-04-11T15:18:48.023Z,38.50
2023-04-11T15:21:16.020Z,39.40
2023-04-11T15:23:44.939Z,39.00
2023-04-11T15:26:12.730Z,38.80
2023-04-11T15:28:40.503Z,39.70
2023-04-11T15:31:09.017Z,40.10
2023-04-11T15:33:37.462Z,39.50
2023-04-11T15:36:05.286Z,40.10
2023-04-11T15:38:33.127Z,39.90
2023-04-11T15:41:01.153Z,39.90
2023-04-11T15:43:29.009Z,40.10
2023-04-11T15:45:56.809Z,40.00
2023-04-11T15:48:24.589Z,39.80
2023-04-11T15:50:52.367Z,40.30
2023-04-11T15:53:20.158Z,39.30
2023-04-11T15:55:49.068Z,39.80
2023-04-11T15:58:17.050Z,40.70
2023-04-11T16:00:45.229Z,41.00
2023-04-11T16:03:13.282Z,40.90
2023-04-11T16:05:43.224Z,40.70
2023-04-11T16:08:11.810Z,40.40
2023-04-11T16:10:39.641Z,40.30
2023-04-11T16:13:07.512Z,40.20
2023-04-11T16:15:35.392Z,40.10
2023-04-11T16:18:03.176Z,40.00
2023-04-11T16:20:31.168Z,39.60
2023-04-11T16:22:58.939Z,39.70
2023-04-11T16:25:26.750Z,39.60
2023-04-11T16:27:54.570Z,39.40
2023-04-11T16:30:22.457Z,40.20
2023-04-11T16:32:50.353Z,39.00
2023-04-11T16:35:18.221Z,39.70
2023-04-11T16:37:46.042Z,39.80
2023-04-11T16:40:14.397Z,39.10
2023-04-11T16:42:42.369Z,39.80
2023-04-11T16:45:10.254Z,39.60
2023-04-11T16:47:38.115Z,38.90
2023-04-11T16:50:06.528Z,39.60
2023-04-11T16:52:34.489Z,39.10
2023-04-11T16:55:03.415Z,38.80
2023-04-11T16:57:33.247Z,39.40
2023-04-11T17:00:06.409Z,40.00
2023-04-11T17:02:34.377Z,40.40
2023-04-11T17:05:02.452Z,40.40
2023-04-11T17:07:30.439Z,41.40
2023-04-11T17:09:58.299Z,41.40
2023-04-11T17:12:26.103Z,41.70
2023-04-11T17:14:55.359Z,42.50
2023-04-11T17:17:23.358Z,41.90
2023-04-11T17:19:51.412Z,42.10
2023-04-11T17:22:19.515Z,42.20
2023-04-11T17:24:47.635Z,42.40
2023-04-11T17:27:15.637Z,42.40
2023-04-11T17:29:43.562Z,42.70
2023-04-11T17:32:12.060Z,42.90
2023-04-11T17:34:40.033Z,43.10
2023-04-11T17:37:07.890Z,42.70
2023-04-11T17:39:35.700Z,42.70
2023-04-11T17:42:03.581Z,42.10
2023-04-11T17:44:31.464Z,41.50
2023-04-11T17:46:59.382Z,41.70
2023-04-11T17:49:28.307Z,40.60
2023-04-11T17:51:59.041Z,40.70
2023-04-11T17:54:27.342Z,41.10
2023-04-11T17:56:55.253Z,41.20
2023-04-11T17:59:24.129Z,40.60
2023-04-11T18:01:53.452Z,41.30
2023-04-11T18:04:21.624Z,41.00
2023-04-11T18:06:49.537Z,41.40
2023-04-11T18:09:17.582Z,41.00
2023-04-11T18:11:45.670Z,40.60
2023-04-11T18:14:13.497Z,40.50
2023-04-11T18:16:41.554Z,39.80
2023-04-11T18:19:09.368Z,40.10
2023-04-11T18:21:37.265Z,39.80
2023-04-11T18:24:05.477Z,39.90
2023-04-11T18:26:33.303Z,39.80
2023-04-11T18:29:01.355Z,39.70
2023-04-11T18:31:29.160Z,39.50
2023-04-11T18:33:57.676Z,39.50
2023-04-11T18:36:26.319Z,39.70
2023-04-11T18:38:55.025Z,40.00
2023-04-11T18:41:23.370Z,39.80
2023-04-11T18:43:51.159Z,40.20
2023-04-11T18:46:19.204Z,40.20
2023-04-11T18:48:47.042Z,40.60
2023-04-11T18:51:14.901Z,40.40
2023-04-11T18:53:42.828Z,40.80
2023-04-11T18:56:10.738Z,40.80
2023-04-11T18:58:45.451Z,40.90
2023-04-11T19:01:16.912Z,42.10
2023-04-11T19:03:46.293Z,42.30
2023-04-11T19:06:14.694Z,42.40
2023-04-11T19:08:42.955Z,42.60
2023-04-11T19:11:10.812Z,42.80
2023-04-11T19:13:38.820Z,42.70
2023-04-11T19:16:06.724Z,42.70
2023-04-11T19:18:34.562Z,43.00
2023-04-11T19:21:02.373Z,43.20
2023-04-11T19:23:30.413Z,43.20
2023-04-11T19:26:00.592Z,43.30
2023-04-11T19:28:28.434Z,43.40
2023-04-11T19:30:56.538Z,43.60
2023-04-11T19:33:26.213Z,43.60
2023-04-11T19:35:54.297Z,43.60
2023-04-11T19:38:22.494Z,43.60
2023-04-11T19:40:51.694Z,43.80
2023-04-11T19:43:19.867Z,43.80
2023-04-11T19:45:47.739Z,43.90
2023-04-11T19:48:16.336Z,43.90
2023-04-11T19:50:44.188Z,43.90
2023-04-11T19:53:12.009Z,43.70
2023-04-11T19:55:40.145Z,43.90
2023-04-11T19:58:07.893Z,44.20
2023-04-11T20:00:37.704Z,44.20
2023-04-11T20:03:07.851Z,44.20
2023-04-11T20:05:36.144Z,44.20
2023-04-11T20:08:04.054Z,44.10
2023-04-11T20:10:32.286Z,44.30
2023-04-11T20:13:00.102Z,44.40
2023-04-11T20:15:28.477Z,44.40
2023-04-11T20:17:56.292Z,44.50
2023-04-11T20:20:25.560Z,44.40
2023-04-11T20:22:53.746Z,45.00
2023-04-11T20:25:21.552Z,44.30
2023-04-11T20:27:49.348Z,44.50
2023-04-11T20:30:17.378Z,44.60
2023-04-11T20:32:45.364Z,44.60
2023-04-11T20:35:13.229Z,44.70
2023-04-11T20:37:41.391Z,44.60
2023-04-11T20:40:10.280Z,44.70
2023-04-11T20:42:40.045Z,44.80
2023-04-11T20:45:08.535Z,44.90
2023-04-11T20:47:37.382Z,45.00
2023-04-11T20:50:05.468Z,45.00
2023-04-11T20:52:33.514Z,44.90
2023-04-11T20:55:02.398Z,44.90
2023-04-11T20:57:31.136Z,44.80
2023-04-11T20:59:59.081Z,44.90
2023-04-11T21:02:27.872Z,44.90
2023-04-11T21:04:55.941Z,44.90
2023-04-11T21:07:23.864Z,45.00
2023-04-11T21:09:51.852Z,45.00
2023-04-11T21:12:19.696Z,44.90
2023-04-11T21:14:47.501Z,45.00
2023-04-11T21:17:15.356Z,45.00
2023-04-11T21:19:43.248Z,45.10
2023-04-11T21:22:11.416Z,45.10
2023-04-11T21:24:39.202Z,45.00
2023-04-11T21:27:07.151Z,45.10
2023-04-11T21:29:34.966Z,45.10
2023-04-11T21:32:02.759Z,45.00
2023-04-11T21:34:30.875Z,45.70
2023-04-11T21:36:58.697Z,45.10
2023-04-11T21:39:26.582Z,45.10
2023-04-11T21:41:54.475Z,44.90
2023-04-11T21:44:22.316Z,45.00
2023-04-11T21:46:50.344Z,45.00
2023-04-11T21:49:18.267Z,45.10
2023-04-11T21:51:46.058Z,45.20
2023-04-11T21:54:13.864Z,45.10
2023-04-11T21:56:43.704Z,45.00
2023-04-11T21:59:11.715Z,45.10
2023-04-11T22:01:39.554Z,45.20
2023-04-11T22:04:10.685Z,45.30
2023-04-11T22:06:38.997Z,45.30
2023-04-11T22:09:06.822Z,45.30
2023-04-11T22:11:34.698Z,45.30
2023-04-11T22:14:03.360Z,45.30
2023-04-11T22:16:31.567Z,45.20
2023-04-11T22:19:00.693Z,45.30
2023-04-11T22:21:28.641Z,45.30
2023-04-11T22:23:56.761Z,45.20
2023-04-11T22:26:26.809Z,45.20
2023-04-11T22:28:55.479Z,45.30
2023-04-11T22:31:23.392Z,45.30
2023-04-11T22:33:51.336Z,45.20
2023-04-11T22:36:19.151Z,45.20
2023-04-11T22:38:47.094Z,45.30
2023-04-11T22:41:14.861Z,45.30
2023-04-11T22:43:42.668Z,45.20
2023-04-11T22:46:10.884Z,45.30
2023-04-11T22:48:38.810Z,45.20
2023-04-11T22:51:07.191Z,45.30
2023-04-11T22:53:34.968Z,45.50
2023-04-11T22:56:03.188Z,45.60
2023-04-11T22:58:31.171Z,45.40
2023-04-11T23:00:59.402Z,46.10
2023-04-11T23:03:27.413Z,45.40
2023-04-11T23:05:55.268Z,45.40
2023-04-11T23:08:23.065Z,45.50
2023-04-11T23:10:50.845Z,45.50
2023-04-11T23:13:19.242Z,45.50
2023-04-11T23:15:47.376Z,45.40
2023-04-11T23:18:15.230Z,45.40
2023-04-11T23:20:43.141Z,45.50
2023-04-11T23:23:11.614Z,45.30
2023-04-11T23:25:40.661Z,45.50
2023-04-11T23:28:08.661Z,45.60
2023-04-11T23:30:37.511Z,45.50
2023-04-11T23:33:06.006Z,45.50
2023-04-11T23:35:34.496Z,45.60
2023-04-11T23:38:02.410Z,45.50
2023-04-11T23:40:31.166Z,45.50
2023-04-11T23:42:59.374Z,45.50
2023-04-11T23:45:27.187Z,45.50
2023-04-11T23:47:55.238Z,45.60
2023-04-11T23:50:23.123Z,45.50
2023-04-11T23:52:53.614Z,45.60
2023-04-11T23:55:22.040Z,45.50
2023-04-11T23:57:49.846Z,45.50
